sensor_id;sensor_type;location;lat;lon;timestamp;P1;durP1;ratioP1;P2;durP2;ratioP2
12110;SDS011;6119;52.372;8.990;2023-08-21T00:01:19;7.50;;;1.93;;
12110;SDS011;6119;52.372;8.990;2023-08-21T00:04:06;7.60;;;2.57;;
12110;SDS011;6119;52.372;8.990;2023-08-21T00:06:54;3.33;;;2.33;;
12110;SDS011;6119;52.372;8.990;2023-08-21T00:09:41;5.23;;;2.07;;
12110;SDS011;6119;52.372;8.990;2023-08-21T00:12:27;1.97;;;1.60;;
12110;SDS011;6119;52.372;8.990;2023-08-21T00:15:14;2.63;;;1.60;;
12110;SDS011;6119;52.372;8.990;2023-08-21T00:18:01;10.60;;;1.90;;
12110;SDS011;6119;52.372;8.990;2023-08-21T00:20:48;5.37;;;2.17;;
12110;SDS011;6119;52.372;8.990;2023-08-21T00:23:36;3.03;;;1.80;;
12110;SDS011;6119;52.372;8.990;2023-08-21T00:26:24;4.40;;;1.93;;
12110;SDS011;6119;52.372;8.990;2023-08-21T00:29:10;4.23;;;2.10;;
12110;SDS011;6119;52.372;8.990;2023-08-21T00:31:57;3.87;;;1.90;;
12110;SDS011;6119;52.372;8.990;2023-08-21T00:34:43;3.33;;;1.93;;
12110;SDS011;6119;52.372;8.990;2023-08-21T00:37:30;5.50;;;2.27;;
12110;SDS011;6119;52.372;8.990;2023-08-21T00:40:18;3.33;;;1.63;;
12110;SDS011;6119;52.372;8.990;2023-08-21T00:43:05;3.80;;;1.70;;
12110;SDS011;6119;52.372;8.990;2023-08-21T00:45:51;5.03;;;2.00;;
12110;SDS011;6119;52.372;8.990;2023-08-21T00:48:38;3.23;;;1.90;;
12110;SDS011;6119;52.372;8.990;2023-08-21T00:51:25;2.07;;;1.83;;
12110;SDS011;6119;52.372;8.990;2023-08-21T00:54:12;6.43;;;2.17;;
12110;SDS011;6119;52.372;8.990;2023-08-21T00:57:00;3.07;;;1.80;;
12110;SDS011;6119;52.372;8.990;2023-08-21T00:59:47;5.80;;;2.00;;
12110;SDS011;6119;52.372;8.990;2023-08-21T01:02:34;2.67;;;1.87;;
12110;SDS011;6119;52.372;8.990;2023-08-21T01:05:21;2.53;;;1.77;;
12110;SDS011;6119;52.372;8.990;2023-08-21T01:08:10;4.03;;;1.73;;
12110;SDS011;6119;52.372;8.990;2023-08-21T01:11:05;6.17;;;2.10;;
12110;SDS011;6119;52.372;8.990;2023-08-21T01:13:59;4.50;;;1.93;;
12110;SDS011;6119;52.372;8.990;2023-08-21T01:16:53;4.63;;;1.97;;
12110;SDS011;6119;52.372;8.990;2023-08-21T01:19:43;5.27;;;2.07;;
12110;SDS011;6119;52.372;8.990;2023-08-21T01:22:34;3.27;;;1.60;;
12110;SDS011;6119;52.372;8.990;2023-08-21T01:25:24;2.83;;;1.87;;
12110;SDS011;6119;52.372;8.990;2023-08-21T01:28:11;3.70;;;1.93;;
12110;SDS011;6119;52.372;8.990;2023-08-21T01:30:59;3.63;;;1.73;;
12110;SDS011;6119;52.372;8.990;2023-08-21T01:33:51;3.73;;;2.00;;
12110;SDS011;6119;52.372;8.990;2023-08-21T01:36:42;1.90;;;1.70;;
12110;SDS011;6119;52.372;8.990;2023-08-21T01:39:29;4.60;;;1.90;;
12110;SDS011;6119;52.372;8.990;2023-08-21T01:42:17;4.53;;;1.87;;
12110;SDS011;6119;52.372;8.990;2023-08-21T01:45:05;5.80;;;2.07;;
12110;SDS011;6119;52.372;8.990;2023-08-21T01:47:53;2.07;;;1.40;;
12110;SDS011;6119;52.372;8.990;2023-08-21T01:50:39;4.67;;;1.80;;
12110;SDS011;6119;52.372;8.990;2023-08-21T01:53:26;3.63;;;2.07;;
12110;SDS011;6119;52.372;8.990;2023-08-21T01:56:12;5.93;;;2.13;;
12110;SDS011;6119;52.372;8.990;2023-08-21T01:59:01;3.27;;;1.87;;
12110;SDS011;6119;52.372;8.990;2023-08-21T02:01:48;4.30;;;1.93;;
12110;SDS011;6119;52.372;8.990;2023-08-21T02:04:34;5.07;;;1.90;;
12110;SDS011;6119;52.372;8.990;2023-08-21T02:07:21;9.03;;;2.10;;
12110;SDS011;6119;52.372;8.990;2023-08-21T02:10:08;8.30;;;1.77;;
12110;SDS011;6119;52.372;8.990;2023-08-21T02:12:55;4.67;;;2.10;;
12110;SDS011;6119;52.372;8.990;2023-08-21T02:15:43;3.93;;;1.87;;
12110;SDS011;6119;52.372;8.990;2023-08-21T02:18:30;7.07;;;2.23;;
12110;SDS011;6119;52.372;8.990;2023-08-21T02:21:16;2.43;;;1.60;;
12110;SDS011;6119;52.372;8.990;2023-08-21T02:24:03;3.13;;;1.50;;
12110;SDS011;6119;52.372;8.990;2023-08-21T02:26:50;2.87;;;1.70;;
12110;SDS011;6119;52.372;8.990;2023-08-21T02:29:37;5.47;;;2.50;;
12110;SDS011;6119;52.372;8.990;2023-08-21T02:32:25;4.93;;;2.00;;
12110;SDS011;6119;52.372;8.990;2023-08-21T02:35:12;2.07;;;1.87;;
12110;SDS011;6119;52.372;8.990;2023-08-21T02:37:59;2.03;;;1.67;;
12110;SDS011;6119;52.372;8.990;2023-08-21T02:40:45;3.70;;;1.90;;
12110;SDS011;6119;52.372;8.990;2023-08-21T02:43:32;5.00;;;1.43;;
12110;SDS011;6119;52.372;8.990;2023-08-21T02:46:19;4.07;;;1.70;;
12110;SDS011;6119;52.372;8.990;2023-08-21T02:49:08;2.93;;;2.00;;
12110;SDS011;6119;52.372;8.990;2023-08-21T02:51:54;5.43;;;1.83;;
12110;SDS011;6119;52.372;8.990;2023-08-21T02:54:41;6.37;;;2.47;;
12110;SDS011;6119;52.372;8.990;2023-08-21T02:57:28;2.63;;;1.80;;
12110;SDS011;6119;52.372;8.990;2023-08-21T03:00:15;2.53;;;1.70;;
12110;SDS011;6119;52.372;8.990;2023-08-21T03:03:02;2.97;;;1.70;;
12110;SDS011;6119;52.372;8.990;2023-08-21T03:05:50;7.23;;;2.27;;
12110;SDS011;6119;52.372;8.990;2023-08-21T03:08:37;3.97;;;2.10;;
12110;SDS011;6119;52.372;8.990;2023-08-21T03:11:24;3.67;;;1.93;;
12110;SDS011;6119;52.372;8.990;2023-08-21T03:14:11;3.87;;;1.80;;
12110;SDS011;6119;52.372;8.990;2023-08-21T03:16:58;3.17;;;1.97;;
12110;SDS011;6119;52.372;8.990;2023-08-21T03:19:44;4.13;;;1.97;;
12110;SDS011;6119;52.372;8.990;2023-08-21T03:22:32;4.20;;;1.80;;
12110;SDS011;6119;52.372;8.990;2023-08-21T03:25:20;4.87;;;1.70;;
12110;SDS011;6119;52.372;8.990;2023-08-21T03:28:07;5.30;;;2.00;;
12110;SDS011;6119;52.372;8.990;2023-08-21T03:30:54;2.10;;;1.83;;
12110;SDS011;6119;52.372;8.990;2023-08-21T03:33:41;3.20;;;2.30;;
12110;SDS011;6119;52.372;8.990;2023-08-21T03:36:28;2.27;;;2.03;;
12110;SDS011;6119;52.372;8.990;2023-08-21T03:39:18;4.23;;;1.83;;
12110;SDS011;6119;52.372;8.990;2023-08-21T03:42:05;4.03;;;2.37;;
12110;SDS011;6119;52.372;8.990;2023-08-21T03:44:52;1.90;;;1.80;;
12110;SDS011;6119;52.372;8.990;2023-08-21T03:47:38;3.53;;;2.33;;
12110;SDS011;6119;52.372;8.990;2023-08-21T03:50:25;3.97;;;2.03;;
12110;SDS011;6119;52.372;8.990;2023-08-21T03:53:11;4.90;;;1.90;;
12110;SDS011;6119;52.372;8.990;2023-08-21T03:55:59;5.73;;;2.30;;
12110;SDS011;6119;52.372;8.990;2023-08-21T03:58:46;5.90;;;2.10;;
12110;SDS011;6119;52.372;8.990;2023-08-21T04:01:34;3.93;;;2.10;;
12110;SDS011;6119;52.372;8.990;2023-08-21T04:04:20;5.43;;;2.33;;
12110;SDS011;6119;52.372;8.990;2023-08-21T04:07:07;7.30;;;2.40;;
12110;SDS011;6119;52.372;8.990;2023-08-21T04:09:54;3.53;;;2.27;;
12110;SDS011;6119;52.372;8.990;2023-08-21T04:12:41;3.07;;;2.20;;
12110;SDS011;6119;52.372;8.990;2023-08-21T04:15:28;4.67;;;2.33;;
12110;SDS011;6119;52.372;8.990;2023-08-21T04:18:15;5.27;;;2.40;;
12110;SDS011;6119;52.372;8.990;2023-08-21T04:21:22;5.97;;;2.50;;
12110;SDS011;6119;52.372;8.990;2023-08-21T04:24:09;3.23;;;2.27;;
12110;SDS011;6119;52.372;8.990;2023-08-21T04:26:55;3.47;;;2.20;;
12110;SDS011;6119;52.372;8.990;2023-08-21T04:29:44;3.73;;;2.27;;
12110;SDS011;6119;52.372;8.990;2023-08-21T04:32:31;4.83;;;2.37;;
12110;SDS011;6119;52.372;8.990;2023-08-21T04:35:18;3.47;;;2.37;;
12110;SDS011;6119;52.372;8.990;2023-08-21T04:38:05;4.50;;;2.03;;
12110;SDS011;6119;52.372;8.990;2023-08-21T04:40:52;7.83;;;2.30;;
12110;SDS011;6119;52.372;8.990;2023-08-21T04:43:39;4.10;;;2.20;;
12110;SDS011;6119;52.372;8.990;2023-08-21T04:46:27;2.53;;;2.10;;
12110;SDS011;6119;52.372;8.990;2023-08-21T04:49:13;5.73;;;2.77;;
12110;SDS011;6119;52.372;8.990;2023-08-21T04:52:00;3.13;;;1.97;;
12110;SDS011;6119;52.372;8.990;2023-08-21T04:54:47;4.03;;;2.13;;
12110;SDS011;6119;52.372;8.990;2023-08-21T04:57:34;3.47;;;2.10;;
12110;SDS011;6119;52.372;8.990;2023-08-21T05:00:21;11.27;;;2.70;;
12110;SDS011;6119;52.372;8.990;2023-08-21T05:03:09;3.50;;;2.10;;
12110;SDS011;6119;52.372;8.990;2023-08-21T05:05:57;7.93;;;2.10;;
12110;SDS011;6119;52.372;8.990;2023-08-21T05:08:44;5.43;;;2.20;;
12110;SDS011;6119;52.372;8.990;2023-08-21T05:11:39;4.13;;;2.00;;
12110;SDS011;6119;52.372;8.990;2023-08-21T05:14:26;4.43;;;2.47;;
12110;SDS011;6119;52.372;8.990;2023-08-21T05:17:12;6.47;;;2.73;;
12110;SDS011;6119;52.372;8.990;2023-08-21T05:19:59;3.93;;;2.80;;
12110;SDS011;6119;52.372;8.990;2023-08-21T05:22:45;5.37;;;2.30;;
12110;SDS011;6119;52.372;8.990;2023-08-21T05:25:32;8.10;;;2.80;;
12110;SDS011;6119;52.372;8.990;2023-08-21T05:28:20;5.10;;;2.40;;
12110;SDS011;6119;52.372;8.990;2023-08-21T05:31:07;4.43;;;2.20;;
12110;SDS011;6119;52.372;8.990;2023-08-21T05:33:54;3.70;;;2.50;;
12110;SDS011;6119;52.372;8.990;2023-08-21T05:36:41;6.13;;;2.90;;
12110;SDS011;6119;52.372;8.990;2023-08-21T05:39:28;5.07;;;2.73;;
12110;SDS011;6119;52.372;8.990;2023-08-21T05:42:15;8.37;;;3.13;;
12110;SDS011;6119;52.372;8.990;2023-08-21T05:45:03;13.07;;;3.40;;
12110;SDS011;6119;52.372;8.990;2023-08-21T05:47:50;4.03;;;2.60;;
12110;SDS011;6119;52.372;8.990;2023-08-21T05:50:37;8.30;;;2.90;;
12110;SDS011;6119;52.372;8.990;2023-08-21T05:53:23;8.07;;;2.87;;
12110;SDS011;6119;52.372;8.990;2023-08-21T05:56:10;4.07;;;3.00;;
12110;SDS011;6119;52.372;8.990;2023-08-21T05:58:56;10.63;;;2.90;;
12110;SDS011;6119;52.372;8.990;2023-08-21T06:01:44;4.67;;;2.80;;
12110;SDS011;6119;52.372;8.990;2023-08-21T06:04:31;7.07;;;3.00;;
12110;SDS011;6119;52.372;8.990;2023-08-21T06:07:18;5.40;;;3.30;;
12110;SDS011;6119;52.372;8.990;2023-08-21T06:10:05;6.57;;;2.97;;
12110;SDS011;6119;52.372;8.990;2023-08-21T06:12:53;4.23;;;3.03;;
12110;SDS011;6119;52.372;8.990;2023-08-21T06:15:42;7.17;;;3.17;;
12110;SDS011;6119;52.372;8.990;2023-08-21T06:18:31;8.40;;;3.33;;
12110;SDS011;6119;52.372;8.990;2023-08-21T06:21:18;7.50;;;3.10;;
12110;SDS011;6119;52.372;8.990;2023-08-21T06:24:05;5.83;;;3.57;;
12110;SDS011;6119;52.372;8.990;2023-08-21T06:26:52;6.83;;;3.70;;
12110;SDS011;6119;52.372;8.990;2023-08-21T06:29:39;8.27;;;3.27;;
12110;SDS011;6119;52.372;8.990;2023-08-21T06:32:26;5.33;;;3.20;;
12110;SDS011;6119;52.372;8.990;2023-08-21T06:35:14;6.70;;;2.83;;
12110;SDS011;6119;52.372;8.990;2023-08-21T06:38:02;6.10;;;3.50;;
12110;SDS011;6119;52.372;8.990;2023-08-21T06:40:49;4.33;;;3.43;;
12110;SDS011;6119;52.372;8.990;2023-08-21T06:43:37;8.93;;;3.40;;
12110;SDS011;6119;52.372;8.990;2023-08-21T06:46:27;4.87;;;2.80;;
12110;SDS011;6119;52.372;8.990;2023-08-21T06:49:14;4.97;;;3.43;;
12110;SDS011;6119;52.372;8.990;2023-08-21T06:52:02;5.30;;;3.20;;
12110;SDS011;6119;52.372;8.990;2023-08-21T06:54:49;9.57;;;3.33;;
12110;SDS011;6119;52.372;8.990;2023-08-21T06:57:35;5.20;;;3.43;;
12110;SDS011;6119;52.372;8.990;2023-08-21T07:00:22;7.53;;;3.37;;
12110;SDS011;6119;52.372;8.990;2023-08-21T07:03:08;5.40;;;2.87;;
12110;SDS011;6119;52.372;8.990;2023-08-21T07:05:55;5.07;;;2.93;;
12110;SDS011;6119;52.372;8.990;2023-08-21T07:08:44;10.50;;;3.20;;
12110;SDS011;6119;52.372;8.990;2023-08-21T07:11:31;7.20;;;3.33;;
12110;SDS011;6119;52.372;8.990;2023-08-21T07:14:18;4.63;;;3.07;;
12110;SDS011;6119;52.372;8.990;2023-08-21T07:17:05;4.30;;;2.57;;
12110;SDS011;6119;52.372;8.990;2023-08-21T07:19:52;5.27;;;3.37;;
12110;SDS011;6119;52.372;8.990;2023-08-21T07:22:38;7.03;;;2.90;;
12110;SDS011;6119;52.372;8.990;2023-08-21T07:25:27;6.23;;;3.23;;
12110;SDS011;6119;52.372;8.990;2023-08-21T07:28:14;7.27;;;3.50;;
12110;SDS011;6119;52.372;8.990;2023-08-21T07:31:01;6.87;;;3.03;;
12110;SDS011;6119;52.372;8.990;2023-08-21T07:33:47;5.43;;;3.50;;
12110;SDS011;6119;52.372;8.990;2023-08-21T07:36:34;7.10;;;3.20;;
12110;SDS011;6119;52.372;8.990;2023-08-21T07:39:21;6.20;;;3.00;;
12110;SDS011;6119;52.372;8.990;2023-08-21T07:42:09;8.43;;;3.23;;
12110;SDS011;6119;52.372;8.990;2023-08-21T07:44:57;2.97;;;2.60;;
12110;SDS011;6119;52.372;8.990;2023-08-21T07:47:44;13.40;;;3.03;;
12110;SDS011;6119;52.372;8.990;2023-08-21T07:50:42;5.47;;;3.30;;
12110;SDS011;6119;52.372;8.990;2023-08-21T07:53:37;8.63;;;3.30;;
12110;SDS011;6119;52.372;8.990;2023-08-21T07:56:24;4.97;;;2.73;;
12110;SDS011;6119;52.372;8.990;2023-08-21T07:59:12;6.80;;;2.83;;
12110;SDS011;6119;52.372;8.990;2023-08-21T08:01:59;7.40;;;3.10;;
12110;SDS011;6119;52.372;8.990;2023-08-21T08:04:47;8.70;;;2.80;;
12110;SDS011;6119;52.372;8.990;2023-08-21T08:07:34;14.40;;;3.53;;
12110;SDS011;6119;52.372;8.990;2023-08-21T08:10:20;4.97;;;2.50;;
12110;SDS011;6119;52.372;8.990;2023-08-21T08:13:07;9.27;;;2.67;;
12110;SDS011;6119;52.372;8.990;2023-08-21T08:15:55;9.70;;;2.97;;
12110;SDS011;6119;52.372;8.990;2023-08-21T08:18:42;7.17;;;2.70;;
12110;SDS011;6119;52.372;8.990;2023-08-21T08:21:29;7.77;;;2.90;;
12110;SDS011;6119;52.372;8.990;2023-08-21T08:24:15;6.13;;;2.43;;
12110;SDS011;6119;52.372;8.990;2023-08-21T08:27:02;9.57;;;2.43;;
12110;SDS011;6119;52.372;8.990;2023-08-21T08:29:49;5.87;;;2.70;;
12110;SDS011;6119;52.372;8.990;2023-08-21T08:32:37;7.93;;;2.60;;
12110;SDS011;6119;52.372;8.990;2023-08-21T08:35:28;6.87;;;2.60;;
12110;SDS011;6119;52.372;8.990;2023-08-21T08:38:15;10.33;;;2.90;;
12110;SDS011;6119;52.372;8.990;2023-08-21T08:41:06;10.40;;;3.13;;
12110;SDS011;6119;52.372;8.990;2023-08-21T08:43:57;9.17;;;2.93;;
12110;SDS011;6119;52.372;8.990;2023-08-21T08:46:45;7.87;;;2.63;;
12110;SDS011;6119;52.372;8.990;2023-08-21T08:49:34;9.30;;;3.27;;
12110;SDS011;6119;52.372;8.990;2023-08-21T08:52:21;8.97;;;2.93;;
12110;SDS011;6119;52.372;8.990;2023-08-21T08:55:11;8.13;;;2.30;;
12110;SDS011;6119;52.372;8.990;2023-08-21T08:57:57;5.13;;;2.37;;
12110;SDS011;6119;52.372;8.990;2023-08-21T09:00:44;5.77;;;2.23;;
12110;SDS011;6119;52.372;8.990;2023-08-21T09:03:31;8.57;;;2.13;;
12110;SDS011;6119;52.372;8.990;2023-08-21T09:06:19;7.47;;;2.43;;
12110;SDS011;6119;52.372;8.990;2023-08-21T09:09:07;8.43;;;2.20;;
12110;SDS011;6119;52.372;8.990;2023-08-21T09:11:55;10.93;;;2.10;;
12110;SDS011;6119;52.372;8.990;2023-08-21T09:14:42;4.47;;;1.93;;
12110;SDS011;6119;52.372;8.990;2023-08-21T09:17:29;5.27;;;1.80;;
12110;SDS011;6119;52.372;8.990;2023-08-21T09:20:16;4.77;;;1.63;;
12110;SDS011;6119;52.372;8.990;2023-08-21T09:23:04;7.90;;;2.57;;
12110;SDS011;6119;52.372;8.990;2023-08-21T09:25:51;6.43;;;2.20;;
12110;SDS011;6119;52.372;8.990;2023-08-21T09:28:37;5.70;;;2.30;;
12110;SDS011;6119;52.372;8.990;2023-08-21T09:31:29;4.27;;;2.10;;
12110;SDS011;6119;52.372;8.990;2023-08-21T09:34:17;4.77;;;1.93;;
12110;SDS011;6119;52.372;8.990;2023-08-21T09:37:05;5.93;;;1.80;;
12110;SDS011;6119;52.372;8.990;2023-08-21T09:39:54;4.90;;;1.90;;
12110;SDS011;6119;52.372;8.990;2023-08-21T09:42:51;3.77;;;2.00;;
12110;SDS011;6119;52.372;8.990;2023-08-21T09:45:38;6.17;;;1.57;;
12110;SDS011;6119;52.372;8.990;2023-08-21T09:48:25;5.53;;;1.83;;
12110;SDS011;6119;52.372;8.990;2023-08-21T09:51:13;4.43;;;1.60;;
12110;SDS011;6119;52.372;8.990;2023-08-21T09:54:00;3.40;;;1.30;;
12110;SDS011;6119;52.372;8.990;2023-08-21T09:56:50;3.80;;;1.50;;
12110;SDS011;6119;52.372;8.990;2023-08-21T09:59:37;2.40;;;1.53;;
12110;SDS011;6119;52.372;8.990;2023-08-21T10:02:27;3.77;;;2.20;;
12110;SDS011;6119;52.372;8.990;2023-08-21T10:05:16;2.30;;;1.50;;
12110;SDS011;6119;52.372;8.990;2023-08-21T10:08:03;2.83;;;1.60;;
12110;SDS011;6119;52.372;8.990;2023-08-21T10:10:52;4.67;;;1.30;;
12110;SDS011;6119;52.372;8.990;2023-08-21T10:13:42;3.67;;;1.40;;
12110;SDS011;6119;52.372;8.990;2023-08-21T10:16:29;3.60;;;1.57;;
12110;SDS011;6119;52.372;8.990;2023-08-21T10:19:16;2.20;;;1.20;;
12110;SDS011;6119;52.372;8.990;2023-08-21T10:22:04;4.23;;;1.43;;
12110;SDS011;6119;52.372;8.990;2023-08-21T10:24:50;4.10;;;1.30;;
12110;SDS011;6119;52.372;8.990;2023-08-21T10:27:45;8.30;;;1.87;;
12110;SDS011;6119;52.372;8.990;2023-08-21T10:30:34;3.37;;;1.80;;
12110;SDS011;6119;52.372;8.990;2023-08-21T10:39:54;5.53;;;1.93;;
12110;SDS011;6119;52.372;8.990;2023-08-21T10:42:42;3.23;;;1.60;;
12110;SDS011;6119;52.372;8.990;2023-08-21T10:45:29;3.37;;;1.90;;
12110;SDS011;6119;52.372;8.990;2023-08-21T10:48:17;7.00;;;2.00;;
12110;SDS011;6119;52.372;8.990;2023-08-21T10:51:05;3.97;;;1.50;;
12110;SDS011;6119;52.372;8.990;2023-08-21T10:53:53;4.67;;;1.50;;
12110;SDS011;6119;52.372;8.990;2023-08-21T10:56:40;3.60;;;1.70;;
12110;SDS011;6119;52.372;8.990;2023-08-21T10:59:27;3.13;;;1.30;;
12110;SDS011;6119;52.372;8.990;2023-08-21T11:02:13;5.07;;;2.00;;
12110;SDS011;6119;52.372;8.990;2023-08-21T11:05:02;7.03;;;1.67;;
12110;SDS011;6119;52.372;8.990;2023-08-21T11:07:49;3.03;;;1.40;;
12110;SDS011;6119;52.372;8.990;2023-08-21T11:10:35;3.20;;;1.20;;
12110;SDS011;6119;52.372;8.990;2023-08-21T11:13:23;3.53;;;1.50;;
12110;SDS011;6119;52.372;8.990;2023-08-21T11:16:10;6.30;;;1.73;;
12110;SDS011;6119;52.372;8.990;2023-08-21T11:18:57;5.63;;;1.93;;
12110;SDS011;6119;52.372;8.990;2023-08-21T11:21:51;5.00;;;1.77;;
12110;SDS011;6119;52.372;8.990;2023-08-21T11:24:39;5.63;;;1.73;;
12110;SDS011;6119;52.372;8.990;2023-08-21T11:27:27;2.73;;;1.47;;
12110;SDS011;6119;52.372;8.990;2023-08-21T11:30:14;5.17;;;1.50;;
12110;SDS011;6119;52.372;8.990;2023-08-21T11:33:04;5.50;;;1.70;;
12110;SDS011;6119;52.372;8.990;2023-08-21T11:35:52;3.77;;;1.30;;
12110;SDS011;6119;52.372;8.990;2023-08-21T11:38:40;3.67;;;1.80;;
12110;SDS011;6119;52.372;8.990;2023-08-21T11:41:27;4.10;;;1.40;;
12110;SDS011;6119;52.372;8.990;2023-08-21T11:44:15;8.97;;;1.63;;
12110;SDS011;6119;52.372;8.990;2023-08-21T11:47:02;4.63;;;1.60;;
12110;SDS011;6119;52.372;8.990;2023-08-21T11:49:49;4.60;;;1.43;;
12110;SDS011;6119;52.372;8.990;2023-08-21T11:52:37;2.60;;;1.40;;
12110;SDS011;6119;52.372;8.990;2023-08-21T11:55:25;4.40;;;1.30;;
12110;SDS011;6119;52.372;8.990;2023-08-21T11:58:12;3.37;;;1.37;;
12110;SDS011;6119;52.372;8.990;2023-08-21T12:01:04;6.77;;;1.27;;
12110;SDS011;6119;52.372;8.990;2023-08-21T12:03:52;2.93;;;1.37;;
12110;SDS011;6119;52.372;8.990;2023-08-21T12:06:43;3.50;;;1.47;;
12110;SDS011;6119;52.372;8.990;2023-08-21T12:09:30;6.53;;;1.70;;
12110;SDS011;6119;52.372;8.990;2023-08-21T12:12:18;5.20;;;1.63;;
12110;SDS011;6119;52.372;8.990;2023-08-21T12:15:05;5.53;;;1.67;;
12110;SDS011;6119;52.372;8.990;2023-08-21T12:17:53;5.87;;;1.60;;
12110;SDS011;6119;52.372;8.990;2023-08-21T12:20:40;5.40;;;1.97;;
12110;SDS011;6119;52.372;8.990;2023-08-21T12:23:27;4.47;;;1.40;;
12110;SDS011;6119;52.372;8.990;2023-08-21T12:26:14;5.17;;;2.03;;
12110;SDS011;6119;52.372;8.990;2023-08-21T12:29:07;3.27;;;1.60;;
12110;SDS011;6119;52.372;8.990;2023-08-21T12:31:53;7.57;;;1.30;;
12110;SDS011;6119;52.372;8.990;2023-08-21T12:34:40;3.03;;;1.40;;
12110;SDS011;6119;52.372;8.990;2023-08-21T12:37:27;4.00;;;1.60;;
12110;SDS011;6119;52.372;8.990;2023-08-21T12:40:14;4.00;;;1.50;;
12110;SDS011;6119;52.372;8.990;2023-08-21T12:43:00;2.87;;;1.40;;
12110;SDS011;6119;52.372;8.990;2023-08-21T12:45:49;3.40;;;1.40;;
12110;SDS011;6119;52.372;8.990;2023-08-21T12:48:35;25.00;;;5.27;;
12110;SDS011;6119;52.372;8.990;2023-08-21T12:51:22;4.03;;;1.60;;
12110;SDS011;6119;52.372;8.990;2023-08-21T12:54:09;4.67;;;1.40;;
12110;SDS011;6119;52.372;8.990;2023-08-21T12:56:56;2.13;;;1.47;;
12110;SDS011;6119;52.372;8.990;2023-08-21T12:59:42;2.60;;;1.50;;
12110;SDS011;6119;52.372;8.990;2023-08-21T13:02:30;3.70;;;1.50;;
12110;SDS011;6119;52.372;8.990;2023-08-21T13:05:17;4.83;;;1.50;;
12110;SDS011;6119;52.372;8.990;2023-08-21T13:08:05;3.07;;;1.53;;
12110;SDS011;6119;52.372;8.990;2023-08-21T13:10:52;3.13;;;1.60;;
12110;SDS011;6119;52.372;8.990;2023-08-21T13:13:38;2.67;;;1.10;;
12110;SDS011;6119;52.372;8.990;2023-08-21T13:16:25;1.37;;;1.20;;
12110;SDS011;6119;52.372;8.990;2023-08-21T13:19:13;4.07;;;1.60;;
12110;SDS011;6119;52.372;8.990;2023-08-21T13:22:00;2.80;;;1.40;;
12110;SDS011;6119;52.372;8.990;2023-08-21T13:24:47;5.17;;;1.60;;
12110;SDS011;6119;52.372;8.990;2023-08-21T13:27:33;2.40;;;1.20;;
12110;SDS011;6119;52.372;8.990;2023-08-21T13:30:20;5.20;;;1.30;;
12110;SDS011;6119;52.372;8.990;2023-08-21T13:33:08;5.63;;;1.30;;
12110;SDS011;6119;52.372;8.990;2023-08-21T13:35:56;2.37;;;1.40;;
12110;SDS011;6119;52.372;8.990;2023-08-21T13:38:43;2.87;;;1.17;;
12110;SDS011;6119;52.372;8.990;2023-08-21T13:41:30;7.33;;;1.30;;
12110;SDS011;6119;52.372;8.990;2023-08-21T13:44:18;4.20;;;1.60;;
12110;SDS011;6119;52.372;8.990;2023-08-21T13:47:05;2.13;;;1.30;;
12110;SDS011;6119;52.372;8.990;2023-08-21T13:49:52;2.47;;;1.20;;
12110;SDS011;6119;52.372;8.990;2023-08-21T13:52:40;4.53;;;1.53;;
12110;SDS011;6119;52.372;8.990;2023-08-21T13:55:27;2.57;;;1.27;;
12110;SDS011;6119;52.372;8.990;2023-08-21T13:58:14;7.13;;;1.37;;
12110;SDS011;6119;52.372;8.990;2023-08-21T14:01:00;2.43;;;1.37;;
12110;SDS011;6119;52.372;8.990;2023-08-21T14:03:48;3.33;;;1.20;;
12110;SDS011;6119;52.372;8.990;2023-08-21T14:06:35;2.23;;;1.20;;
12110;SDS011;6119;52.372;8.990;2023-08-21T14:09:24;4.07;;;1.40;;
12110;SDS011;6119;52.372;8.990;2023-08-21T14:12:11;2.93;;;1.30;;
12110;SDS011;6119;52.372;8.990;2023-08-21T14:14:57;5.57;;;1.20;;
12110;SDS011;6119;52.372;8.990;2023-08-21T14:17:45;4.47;;;1.57;;
12110;SDS011;6119;52.372;8.990;2023-08-21T14:20:33;4.77;;;1.27;;
12110;SDS011;6119;52.372;8.990;2023-08-21T14:23:20;2.93;;;1.33;;
12110;SDS011;6119;52.372;8.990;2023-08-21T14:26:08;2.57;;;1.40;;
12110;SDS011;6119;52.372;8.990;2023-08-21T14:28:54;2.17;;;1.00;;
12110;SDS011;6119;52.372;8.990;2023-08-21T14:31:41;1.60;;;1.10;;
12110;SDS011;6119;52.372;8.990;2023-08-21T14:34:28;2.57;;;1.17;;
12110;SDS011;6119;52.372;8.990;2023-08-21T14:37:14;3.93;;;1.33;;
12110;SDS011;6119;52.372;8.990;2023-08-21T14:40:01;3.77;;;1.30;;
12110;SDS011;6119;52.372;8.990;2023-08-21T14:42:53;3.37;;;1.43;;
12110;SDS011;6119;52.372;8.990;2023-08-21T14:45:40;2.43;;;1.03;;
12110;SDS011;6119;52.372;8.990;2023-08-21T14:48:27;2.60;;;1.20;;
12110;SDS011;6119;52.372;8.990;2023-08-21T14:51:14;3.67;;;1.20;;
12110;SDS011;6119;52.372;8.990;2023-08-21T14:54:00;2.73;;;1.10;;
12110;SDS011;6119;52.372;8.990;2023-08-21T14:56:47;3.27;;;1.27;;
12110;SDS011;6119;52.372;8.990;2023-08-21T14:59:35;3.93;;;1.50;;
12110;SDS011;6119;52.372;8.990;2023-08-21T15:02:22;2.47;;;1.40;;
12110;SDS011;6119;52.372;8.990;2023-08-21T15:05:08;3.07;;;1.40;;
12110;SDS011;6119;52.372;8.990;2023-08-21T15:07:57;3.87;;;1.40;;
12110;SDS011;6119;52.372;8.990;2023-08-21T15:10:46;3.17;;;1.33;;
12110;SDS011;6119;52.372;8.990;2023-08-21T15:13:33;3.25;;;1.30;;
12110;SDS011;6119;52.372;8.990;2023-08-21T15:16:21;3.22;;;1.38;;
12110;SDS011;6119;52.372;8.990;2023-08-21T15:19:08;4.07;;;1.33;;
12110;SDS011;6119;52.372;8.990;2023-08-21T15:21:54;3.65;;;1.40;;
12110;SDS011;6119;52.372;8.990;2023-08-21T15:24:41;6.20;;;1.70;;
12110;SDS011;6119;52.372;8.990;2023-08-21T15:27:27;6.78;;;1.75;;
12110;SDS011;6119;52.372;8.990;2023-08-21T15:30:14;2.42;;;1.42;;
12110;SDS011;6119;52.372;8.990;2023-08-21T15:33:04;2.97;;;1.30;;
12110;SDS011;6119;52.372;8.990;2023-08-21T15:35:50;1.40;;;1.30;;
12110;SDS011;6119;52.372;8.990;2023-08-21T15:38:37;5.75;;;1.90;;
12110;SDS011;6119;52.372;8.990;2023-08-21T15:41:23;4.03;;;1.63;;
12110;SDS011;6119;52.372;8.990;2023-08-21T15:44:10;3.00;;;1.20;;
12110;SDS011;6119;52.372;8.990;2023-08-21T15:46:57;4.68;;;1.70;;
12110;SDS011;6119;52.372;8.990;2023-08-21T15:50:05;5.10;;;1.23;;
12110;SDS011;6119;52.372;8.990;2023-08-21T15:52:53;7.68;;;1.73;;
12110;SDS011;6119;52.372;8.990;2023-08-21T15:55:40;3.90;;;1.80;;
12110;SDS011;6119;52.372;8.990;2023-08-21T15:58:26;4.63;;;1.50;;
12110;SDS011;6119;52.372;8.990;2023-08-21T16:01:14;2.45;;;1.15;;
12110;SDS011;6119;52.372;8.990;2023-08-21T16:04:02;2.60;;;1.50;;
12110;SDS011;6119;52.372;8.990;2023-08-21T16:06:51;1.20;;;1.10;;
12110;SDS011;6119;52.372;8.990;2023-08-21T16:09:38;2.20;;;1.60;;
12110;SDS011;6119;52.372;8.990;2023-08-21T16:12:24;3.97;;;1.52;;
12110;SDS011;6119;52.372;8.990;2023-08-21T16:15:11;3.22;;;1.20;;
12110;SDS011;6119;52.372;8.990;2023-08-21T16:17:58;5.68;;;1.90;;
12110;SDS011;6119;52.372;8.990;2023-08-21T16:20:45;2.03;;;1.40;;
12110;SDS011;6119;52.372;8.990;2023-08-21T16:23:33;3.45;;;1.30;;
12110;SDS011;6119;52.372;8.990;2023-08-21T16:26:19;5.70;;;1.40;;
12110;SDS011;6119;52.372;8.990;2023-08-21T16:29:06;3.75;;;1.50;;
12110;SDS011;6119;52.372;8.990;2023-08-21T16:31:53;3.65;;;1.27;;
12110;SDS011;6119;52.372;8.990;2023-08-21T16:34:40;2.50;;;1.50;;
12110;SDS011;6119;52.372;8.990;2023-08-21T16:37:26;6.75;;;1.40;;
12110;SDS011;6119;52.372;8.990;2023-08-21T16:40:14;1.85;;;1.45;;
12110;SDS011;6119;52.372;8.990;2023-08-21T16:43:01;4.40;;;1.50;;
12110;SDS011;6119;52.372;8.990;2023-08-21T16:45:48;4.22;;;1.65;;
12110;SDS011;6119;52.372;8.990;2023-08-21T16:48:35;4.03;;;1.60;;
12110;SDS011;6119;52.372;8.990;2023-08-21T16:51:21;3.22;;;1.70;;
12110;SDS011;6119;52.372;8.990;2023-08-21T16:54:08;3.78;;;1.27;;
12110;SDS011;6119;52.372;8.990;2023-08-21T16:56:56;5.28;;;2.50;;
12110;SDS011;6119;52.372;8.990;2023-08-21T16:59:43;4.47;;;1.30;;
12110;SDS011;6119;52.372;8.990;2023-08-21T17:02:29;3.75;;;1.73;;
12110;SDS011;6119;52.372;8.990;2023-08-21T17:05:16;4.28;;;1.50;;
12110;SDS011;6119;52.372;8.990;2023-08-21T17:08:03;5.40;;;2.50;;
12110;SDS011;6119;52.372;8.990;2023-08-21T17:10:51;5.28;;;1.58;;